Terminal Aerodrome Forecast
Issued by NWS Twin Cities, MN

Home | Current Version | Previous Version | Text Only | Print | Product List | Glossary On
Versions: 1 2 3 4 5 6 7 8 9 10 11 12 13 14
000
FTUS43 KMPX 301146
TAFSTC
TAF
KSTC 301146Z 3012/3112 00000KT P6SM BKN080
     FM301400 15003KT P6SM OVC080
     FM301800 18008KT P6SM BKN100
     FM302000 24009KT P6SM SCT150
     FM310000 31014KT P6SM FEW150
     FM310500 30005KT P6SM SKC=

USA.gov is the U.S. government's official web portal to all federal, state and local government web resources and services.